createdAt,value
2022-09-06T00:01:20.022Z,13.74
2022-09-06T00:04:23.463Z,13.73
2022-09-06T00:07:26.790Z,13.73
2022-09-06T00:10:31.542Z,13.72
2022-09-06T00:13:34.990Z,13.71
2022-09-06T00:16:40.726Z,13.74
2022-09-06T00:19:43.468Z,13.74
2022-09-06T00:22:46.473Z,13.71
2022-09-06T00:25:49.107Z,13.70
2022-09-06T00:28:52.340Z,13.68
2022-09-06T00:31:55.012Z,13.59
2022-09-06T00:34:57.982Z,13.59
2022-09-06T00:38:02.087Z,13.51
2022-09-06T00:41:07.005Z,13.54
2022-09-06T00:44:09.718Z,13.44
2022-09-06T00:47:12.832Z,13.36
2022-09-06T00:50:18.417Z,13.32
2022-09-06T00:53:21.980Z,13.29
2022-09-06T00:56:26.516Z,13.26
2022-09-06T00:59:32.478Z,13.22
2022-09-06T01:02:35.290Z,13.18
2022-09-06T01:05:59.102Z,13.21
2022-09-06T01:09:21.082Z,13.17
2022-09-06T01:12:34.409Z,13.12
2022-09-06T01:16:29.509Z,13.07
2022-09-06T01:19:41.760Z,13.01
2022-09-06T01:23:18.179Z,12.97
2022-09-06T01:26:51.414Z,12.93
2022-09-06T01:30:03.256Z,12.86
2022-09-06T01:33:32.456Z,12.80
2022-09-06T01:37:06.161Z,12.77
2022-09-06T01:40:08.353Z,12.74
2022-09-06T01:43:13.754Z,12.72
2022-09-06T01:46:34.828Z,12.69
2022-09-06T01:50:12.674Z,12.71
2022-09-06T01:53:39.622Z,12.65
2022-09-06T01:56:51.041Z,12.66
2022-09-06T02:00:10.946Z,12.68
2022-09-06T02:03:34.820Z,12.64
2022-09-06T02:06:43.470Z,12.65
2022-09-06T02:09:53.867Z,12.67
2022-09-06T02:13:01.431Z,12.68
2022-09-06T02:16:07.192Z,12.70
2022-09-06T02:19:37.426Z,12.66
2022-09-06T02:22:44.398Z,12.58
2022-09-06T02:25:53.216Z,12.54
2022-09-06T02:28:57.124Z,12.49
2022-09-06T02:32:18.558Z,12.56
2022-09-06T02:35:21.486Z,12.57
2022-09-06T02:38:27.113Z,12.55
2022-09-06T02:41:31.172Z,12.59
2022-09-06T02:44:34.122Z,12.58
2022-09-06T02:47:36.828Z,12.56
2022-09-06T02:50:39.877Z,12.55
2022-09-06T02:53:42.542Z,12.48
2022-09-06T02:56:47.984Z,12.45
2022-09-06T02:59:54.473Z,12.44
2022-09-06T03:02:57.680Z,12.43
2022-09-06T03:06:00.418Z,12.45
2022-09-06T03:09:03.657Z,12.47
2022-09-06T03:12:06.441Z,12.46
2022-09-06T03:15:10.281Z,12.46
2022-09-06T03:18:12.942Z,12.42
2022-09-06T03:21:15.926Z,12.39
2022-09-06T03:24:18.525Z,12.38
2022-09-06T03:27:21.450Z,12.31
2022-09-06T03:30:24.213Z,12.33
2022-09-06T03:33:27.313Z,12.31
2022-09-06T03:36:30.024Z,12.28
2022-09-06T03:39:33.281Z,12.24
2022-09-06T03:42:36.088Z,12.20
2022-09-06T03:45:39.495Z,12.17
2022-09-06T03:48:42.384Z,12.15
2022-09-06T03:51:45.529Z,12.14
2022-09-06T03:54:48.150Z,12.11
2022-09-06T03:57:51.038Z,12.09
2022-09-06T04:01:01.871Z,12.05
2022-09-06T04:04:05.020Z,12.05
2022-09-06T04:07:07.611Z,12.06
2022-09-06T04:10:11.307Z,12.03
2022-09-06T04:13:13.875Z,12.02
2022-09-06T04:16:18.789Z,12.00
2022-09-06T04:19:21.549Z,11.99
2022-09-06T04:22:24.577Z,12.02
2022-09-06T04:25:27.178Z,12.06
2022-09-06T04:28:30.636Z,12.05
2022-09-06T04:31:33.526Z,12.11
2022-09-06T04:34:36.603Z,12.12
2022-09-06T04:37:40.211Z,12.16
2022-09-06T04:40:43.181Z,12.21
2022-09-06T04:43:46.073Z,12.24
2022-09-06T04:46:49.202Z,12.32
2022-09-06T04:49:52.592Z,12.38
2022-09-06T04:52:55.582Z,12.53
2022-09-06T04:55:58.645Z,12.59
2022-09-06T04:59:01.644Z,12.65
2022-09-06T05:02:04.531Z,12.74
2022-09-06T05:05:07.850Z,12.93
2022-09-06T05:08:10.610Z,13.03
2022-09-06T05:11:14.064Z,13.08
2022-09-06T05:14:16.681Z,13.28
2022-09-06T05:17:19.645Z,13.47
2022-09-06T05:20:22.322Z,14.41
2022-09-06T05:23:26.313Z,15.58
2022-09-06T05:26:28.917Z,16.44
2022-09-06T05:29:31.934Z,17.26
2022-09-06T05:32:34.646Z,17.96
2022-09-06T05:35:37.837Z,18.40
2022-09-06T05:38:40.902Z,19.07
2022-09-06T05:41:44.181Z,19.45
2022-09-06T05:44:46.891Z,20.05
2022-09-06T05:47:49.846Z,20.44
2022-09-06T05:51:06.992Z,20.99
2022-09-06T05:54:13.096Z,21.48
2022-09-06T05:57:16.019Z,22.25
2022-09-06T06:00:18.810Z,23.03
2022-09-06T06:03:21.840Z,23.28
2022-09-06T06:06:26.010Z,23.77
2022-09-06T06:09:29.030Z,24.26
2022-09-06T06:12:31.675Z,24.23
2022-09-06T06:15:34.654Z,24.56
2022-09-06T06:18:37.414Z,25.26
2022-09-06T06:21:40.745Z,25.12
2022-09-06T06:24:43.519Z,25.79
2022-09-06T06:27:46.434Z,24.91
2022-09-06T06:30:50.071Z,24.61
2022-09-06T06:33:53.121Z,24.74
2022-09-06T06:36:55.782Z,25.50
2022-09-06T06:39:59.110Z,25.60
2022-09-06T06:43:01.782Z,26.77
2022-09-06T06:46:10.158Z,26.47
2022-09-06T06:49:12.932Z,26.95
2022-09-06T06:52:15.998Z,27.30
2022-09-06T06:55:18.639Z,27.84
2022-09-06T06:58:21.693Z,28.06
2022-09-06T07:01:26.623Z,26.86
2022-09-06T07:04:29.675Z,27.28
2022-09-06T07:07:33.634Z,27.40
2022-09-06T07:10:38.821Z,27.50
2022-09-06T07:13:41.753Z,27.67
2022-09-06T07:16:45.773Z,27.11
2022-09-06T07:26:35.372Z,26.58
2022-09-06T07:29:38.582Z,26.89
2022-09-06T07:32:41.227Z,27.17
2022-09-06T07:35:55.115Z,27.28
2022-09-06T07:38:57.718Z,27.67
2022-09-06T07:42:01.580Z,27.69
2022-09-06T07:45:05.710Z,27.38
2022-09-06T07:48:08.761Z,26.93
2022-09-06T07:51:30.202Z,27.21
2022-09-06T07:54:33.121Z,27.21
2022-09-06T07:57:35.803Z,27.07
2022-09-06T08:00:41.196Z,27.25
2022-09-06T08:03:45.780Z,27.28
2022-09-06T08:10:17.066Z,27.15
2022-09-06T08:13:21.320Z,27.81
2022-09-06T08:16:27.890Z,28.48
2022-09-06T08:19:31.485Z,28.38
2022-09-06T08:22:34.484Z,28.69
2022-09-06T08:25:37.226Z,28.86
2022-09-06T08:28:40.238Z,27.99
2022-09-06T08:31:44.364Z,27.67
2022-09-06T08:34:47.357Z,27.43
2022-09-06T08:37:50.002Z,25.90
2022-09-06T08:40:54.818Z,25.72
2022-09-06T08:47:25.295Z,25.55
2022-09-06T08:50:29.212Z,25.91
2022-09-06T08:53:35.083Z,25.83
2022-09-06T08:57:03.076Z,26.62
2022-09-06T09:00:11.038Z,26.20
2022-09-06T09:03:21.580Z,26.34
2022-09-06T09:06:26.945Z,26.95
2022-09-06T09:09:32.573Z,27.05
2022-09-06T09:12:42.888Z,27.41
2022-09-06T09:15:45.739Z,27.74
2022-09-06T09:19:01.863Z,26.70
2022-09-06T09:22:04.589Z,26.50
2022-09-06T09:25:11.958Z,27.03
2022-09-06T09:28:19.126Z,27.28
2022-09-06T09:31:41.029Z,27.75
2022-09-06T09:34:43.822Z,27.30
2022-09-06T09:37:48.488Z,27.71
2022-09-06T09:40:54.581Z,27.50
2022-09-06T09:44:04.736Z,27.13
2022-09-06T09:47:24.814Z,27.37
2022-09-06T09:50:31.155Z,28.12
2022-09-06T09:53:33.799Z,27.46
2022-09-06T09:56:43.477Z,27.30
2022-09-06T09:59:56.377Z,27.55
2022-09-06T10:02:59.503Z,27.53
2022-09-06T10:06:03.390Z,27.52
2022-09-06T10:09:41.604Z,27.68
2022-09-06T10:12:44.605Z,27.57
2022-09-06T10:15:49.379Z,27.95
2022-09-06T10:18:52.876Z,27.68
2022-09-06T10:22:03.997Z,27.90
2022-09-06T10:25:55.319Z,27.70
2022-09-06T10:29:05.863Z,27.62
2022-09-06T10:32:32.792Z,27.52
2022-09-06T10:35:38.332Z,27.70
2022-09-06T10:39:04.242Z,27.80
2022-09-06T10:42:07.069Z,28.12
2022-09-06T10:45:36.300Z,28.32
2022-09-06T10:48:46.449Z,27.81
2022-09-06T10:51:54.578Z,28.24
2022-09-06T10:55:04.007Z,27.70
2022-09-06T10:58:19.356Z,27.60
2022-09-06T11:01:37.748Z,27.80
2022-09-06T11:12:22.629Z,27.78
2022-09-06T11:15:29.929Z,27.87
2022-09-06T11:18:46.986Z,27.84
2022-09-06T11:22:12.235Z,27.74
2022-09-06T11:25:33.309Z,27.70
2022-09-06T11:28:39.472Z,27.42
2022-09-06T11:32:18.805Z,27.51
2022-09-06T11:35:34.952Z,27.42
2022-09-06T11:38:37.984Z,27.72
2022-09-06T11:41:42.741Z,27.94
2022-09-06T11:44:57.989Z,28.04
2022-09-06T11:48:35.147Z,28.06
2022-09-06T11:51:45.227Z,27.94
2022-09-06T11:54:48.387Z,27.88
2022-09-06T11:57:58.255Z,27.61
2022-09-06T12:01:12.741Z,27.61
2022-09-06T12:04:15.756Z,27.61
2022-09-06T12:07:18.782Z,27.73
2022-09-06T12:10:30.814Z,27.69
2022-09-06T12:14:04.487Z,27.66
2022-09-06T12:17:08.860Z,27.83
2022-09-06T12:20:11.556Z,27.62
2022-09-06T12:23:35.970Z,27.91
2022-09-06T12:27:07.841Z,28.10
2022-09-06T12:30:29.971Z,28.05
2022-09-06T12:33:36.359Z,28.09
2022-09-06T12:36:55.623Z,28.08
2022-09-06T12:39:59.769Z,27.96
2022-09-06T12:43:05.050Z,27.85
2022-09-06T12:46:08.346Z,27.94
2022-09-06T12:49:12.798Z,27.61
2022-09-06T12:52:19.609Z,27.88
2022-09-06T12:55:32.569Z,28.11
2022-09-06T12:58:36.508Z,27.98
2022-09-06T13:01:42.362Z,28.15
2022-09-06T13:04:55.434Z,28.42
2022-09-06T13:08:04.458Z,28.75
2022-09-06T13:11:11.094Z,28.72
2022-09-06T13:14:35.389Z,28.36
2022-09-06T13:17:38.679Z,28.38
2022-09-06T13:20:41.734Z,28.34
2022-09-06T13:23:51.021Z,28.46
2022-09-06T13:26:54.534Z,28.15
2022-09-06T13:30:05.880Z,28.33
2022-09-06T13:33:24.492Z,28.44
2022-09-06T13:36:33.864Z,28.55
2022-09-06T13:39:38.309Z,28.64
2022-09-06T13:42:41.235Z,28.73
2022-09-06T13:45:47.293Z,28.34
2022-09-06T13:48:49.982Z,28.20
2022-09-06T13:51:55.183Z,28.25
2022-09-06T13:54:59.263Z,28.12
2022-09-06T13:58:02.205Z,28.17
2022-09-06T14:01:10.011Z,28.16
2022-09-06T14:04:19.693Z,27.90
2022-09-06T14:07:23.044Z,27.62
2022-09-06T14:10:26.059Z,27.57
2022-09-06T14:13:30.296Z,27.55
2022-09-06T14:16:34.206Z,27.62
2022-09-06T14:19:36.853Z,27.75
2022-09-06T14:22:39.807Z,27.95
2022-09-06T14:25:42.442Z,28.07
2022-09-06T14:28:45.652Z,28.11
2022-09-06T14:31:49.058Z,27.93
2022-09-06T14:34:52.173Z,28.01
2022-09-06T14:37:54.757Z,28.00
2022-09-06T14:41:04.057Z,28.03
2022-09-06T14:44:06.844Z,27.92
2022-09-06T14:47:09.934Z,27.96
2022-09-06T14:50:12.684Z,27.76
2022-09-06T14:53:38.945Z,27.89
2022-09-06T14:56:42.034Z,28.13
2022-09-06T14:59:45.131Z,27.98
2022-09-06T15:02:47.776Z,28.04
2022-09-06T15:05:50.900Z,28.18
2022-09-06T15:08:58.530Z,28.03
2022-09-06T15:12:02.439Z,28.19
2022-09-06T15:15:06.032Z,28.07
2022-09-06T15:18:09.014Z,27.55
2022-09-06T15:21:13.582Z,27.40
2022-09-06T15:24:17.065Z,27.25
2022-09-06T15:27:19.728Z,27.11
2022-09-06T15:30:22.690Z,27.07
2022-09-06T15:33:29.860Z,26.91
2022-09-06T15:36:33.498Z,26.82
2022-09-06T15:39:36.358Z,26.73
2022-09-06T15:42:39.807Z,26.67
2022-09-06T15:45:49.404Z,26.66
2022-09-06T15:48:53.876Z,26.58
2022-09-06T15:51:58.502Z,26.41
2022-09-06T15:55:19.995Z,26.39
2022-09-06T15:58:24.586Z,26.35
2022-09-06T16:01:27.640Z,26.34
2022-09-06T16:04:30.723Z,26.32
2022-09-06T16:07:33.509Z,26.34
2022-09-06T16:10:39.106Z,26.31
2022-09-06T16:13:43.303Z,26.24
2022-09-06T16:16:46.350Z,26.20
2022-09-06T16:19:49.876Z,26.13
2022-09-06T16:22:52.788Z,26.04
2022-09-06T16:25:55.570Z,25.93
2022-09-06T16:28:59.628Z,25.84
2022-09-06T16:32:02.622Z,25.79
2022-09-06T16:35:06.160Z,25.74
2022-09-06T16:38:09.839Z,25.63
2022-09-06T16:41:23.696Z,25.63
2022-09-06T16:44:26.399Z,25.56
2022-09-06T16:47:31.826Z,25.43
2022-09-06T16:50:34.708Z,25.28
2022-09-06T16:53:40.285Z,25.15
2022-09-06T16:56:43.841Z,25.00
2022-09-06T16:59:46.798Z,24.87
2022-09-06T17:02:49.537Z,24.74
2022-09-06T17:05:53.246Z,24.63
2022-09-06T17:08:58.522Z,24.47
2022-09-06T17:12:01.496Z,24.36
2022-09-06T17:15:04.486Z,24.20
2022-09-06T17:18:08.320Z,24.10
2022-09-06T17:21:11.021Z,23.91
2022-09-06T17:24:14.041Z,23.81
2022-09-06T17:27:16.889Z,23.67
2022-09-06T17:30:20.463Z,23.44
2022-09-06T17:33:23.977Z,23.30
2022-09-06T17:36:30.650Z,23.07
2022-09-06T17:39:33.971Z,22.92
2022-09-06T17:42:37.196Z,22.75
2022-09-06T17:45:45.398Z,22.59
2022-09-06T17:48:48.412Z,22.41
2022-09-06T17:51:52.221Z,22.25
2022-09-06T17:54:55.139Z,22.07
2022-09-06T17:57:58.617Z,21.92
2022-09-06T18:01:06.311Z,21.73
2022-09-06T18:04:10.641Z,21.56
2022-09-06T18:07:13.221Z,21.48
2022-09-06T18:10:17.775Z,21.34
2022-09-06T18:13:20.385Z,21.23
2022-09-06T18:16:24.245Z,21.13
2022-09-06T18:19:28.005Z,21.04
2022-09-06T18:22:31.118Z,20.97
2022-09-06T18:25:33.742Z,20.86
2022-09-06T18:31:41.068Z,20.67
2022-09-06T18:34:44.043Z,20.76
2022-09-06T18:37:46.690Z,21.17
2022-09-06T18:41:01.010Z,21.31
2022-09-06T18:44:05.300Z,21.29
2022-09-06T18:47:09.760Z,21.21
2022-09-06T18:50:12.513Z,21.12
2022-09-06T18:53:18.264Z,21.01
2022-09-06T18:56:21.098Z,20.90
2022-09-06T18:59:24.387Z,20.82
2022-09-06T19:02:28.587Z,20.68
2022-09-06T19:05:35.620Z,20.67
2022-09-06T19:08:39.086Z,20.52
2022-09-06T19:11:43.687Z,20.51
2022-09-06T19:14:46.482Z,20.36
2022-09-06T19:17:50.894Z,20.40
2022-09-06T19:20:58.552Z,20.32
2022-09-06T19:24:06.947Z,20.24
2022-09-06T19:27:10.677Z,20.19
2022-09-06T19:30:13.889Z,20.08
2022-09-06T19:33:17.568Z,20.04
2022-09-06T19:36:22.178Z,20.03
2022-09-06T19:39:32.343Z,19.91
2022-09-06T19:42:38.305Z,19.82
2022-09-06T19:45:41.620Z,19.71
2022-09-06T19:48:46.870Z,19.65
2022-09-06T19:51:50.997Z,19.53
2022-09-06T19:54:53.987Z,19.48
2022-09-06T19:57:57.627Z,19.40
2022-09-06T20:01:00.995Z,19.40
2022-09-06T20:04:07.843Z,19.37
2022-09-06T20:07:10.630Z,19.31
2022-09-06T20:10:13.714Z,19.27
2022-09-06T20:13:16.530Z,19.23
2022-09-06T20:16:20.985Z,19.22
2022-09-06T20:19:23.963Z,19.20
2022-09-06T20:22:26.980Z,19.16
2022-09-06T20:25:29.591Z,19.10
2022-09-06T20:28:34.122Z,19.13
2022-09-06T20:31:38.254Z,19.06
2022-09-06T20:34:41.701Z,19.02
2022-09-06T20:37:44.402Z,18.99
2022-09-06T20:40:47.399Z,18.93
2022-09-06T20:43:58.030Z,18.95
2022-09-06T20:47:01.785Z,18.89
2022-09-06T20:50:05.157Z,18.89
2022-09-06T20:53:08.456Z,18.94
2022-09-06T20:56:16.605Z,18.96
2022-09-06T20:59:19.751Z,18.90
2022-09-06T21:02:22.394Z,18.82
2022-09-06T21:05:25.414Z,18.85
2022-09-06T21:08:31.680Z,18.79
2022-09-06T21:11:38.152Z,18.81
2022-09-06T21:14:40.824Z,18.72
2022-09-06T21:17:44.689Z,18.74
2022-09-06T21:20:58.218Z,18.71
2022-09-06T21:24:02.774Z,18.68
2022-09-06T21:27:06.890Z,18.65
2022-09-06T21:30:10.874Z,18.59
2022-09-06T21:33:14.387Z,18.61
2022-09-06T21:36:19.537Z,18.66
2022-09-06T21:39:22.154Z,18.68
2022-09-06T21:42:25.251Z,18.59
2022-09-06T21:45:27.882Z,18.59
2022-09-06T21:48:31.229Z,18.47
2022-09-06T21:51:34.852Z,18.52
2022-09-06T21:54:37.842Z,18.55
2022-09-06T21:57:40.529Z,18.51
2022-09-06T22:00:46.196Z,18.46
2022-09-06T22:03:49.769Z,18.36
2022-09-06T22:06:52.386Z,18.37
2022-09-06T22:09:56.390Z,18.36
2022-09-06T22:12:59.059Z,18.31
2022-09-06T22:16:07.664Z,18.26
2022-09-06T22:19:11.490Z,18.23
2022-09-06T22:22:14.516Z,18.19
2022-09-06T22:25:17.284Z,18.11
2022-09-06T22:28:20.477Z,18.08
2022-09-06T22:31:25.008Z,18.07
2022-09-06T22:34:28.009Z,18.02
2022-09-06T22:37:30.665Z,17.91
2022-09-06T22:40:33.751Z,17.85
2022-09-06T22:43:36.377Z,17.77
2022-09-06T22:46:39.730Z,17.64
2022-09-06T22:49:42.823Z,17.52
2022-09-06T22:52:45.836Z,17.44
2022-09-06T22:55:48.506Z,17.36
2022-09-06T22:58:51.512Z,17.33
2022-09-06T23:01:54.150Z,17.26
2022-09-06T23:04:57.672Z,17.17
2022-09-06T23:08:02.117Z,17.12
2022-09-06T23:11:07.566Z,17.14
2022-09-06T23:14:10.125Z,17.07
2022-09-06T23:17:14.758Z,17.02
2022-09-06T23:20:18.073Z,17.01
2022-09-06T23:23:20.999Z,16.88
2022-09-06T23:26:31.766Z,16.90
2022-09-06T23:29:35.207Z,16.93
2022-09-06T23:32:38.152Z,16.85
2022-09-06T23:35:41.202Z,16.68
2022-09-06T23:38:43.866Z,16.63
2022-09-06T23:41:47.043Z,16.51
2022-09-06T23:44:54.460Z,16.45
2022-09-06T23:47:57.365Z,16.35
2022-09-06T23:51:00.756Z,16.28
2022-09-06T23:54:04.037Z,16.24
2022-09-06T23:57:06.717Z,16.09
